sensor_id;sensor_type;location;lat;lon;timestamp;temperature;humidity
20998;DHT22;10657;51.276;6.390;2022-11-14T00:00:54;6.40;99.90
20998;DHT22;10657;51.276;6.390;2022-11-14T00:03:21;6.50;99.90
20998;DHT22;10657;51.276;6.390;2022-11-14T00:05:47;6.50;99.90
20998;DHT22;10657;51.276;6.390;2022-11-14T00:08:19;6.40;99.90
20998;DHT22;10657;51.276;6.390;2022-11-14T00:10:47;6.40;99.90
20998;DHT22;10657;51.276;6.390;2022-11-14T00:13:16;6.40;99.90
20998;DHT22;10657;51.276;6.390;2022-11-14T00:15:43;6.40;99.90
20998;DHT22;10657;51.276;6.390;2022-11-14T00:18:09;6.20;99.90
20998;DHT22;10657;51.276;6.390;2022-11-14T00:20:36;6.30;99.90
20998;DHT22;10657;51.276;6.390;2022-11-14T00:23:03;6.30;99.90
20998;DHT22;10657;51.276;6.390;2022-11-14T00:25:30;6.20;99.90
20998;DHT22;10657;51.276;6.390;2022-11-14T00:27:58;6.40;99.90
20998;DHT22;10657;51.276;6.390;2022-11-14T00:30:25;6.40;99.90
20998;DHT22;10657;51.276;6.390;2022-11-14T00:32:51;6.40;99.90
20998;DHT22;10657;51.276;6.390;2022-11-14T00:35:18;6.30;99.90
20998;DHT22;10657;51.276;6.390;2022-11-14T00:37:44;6.20;99.90
20998;DHT22;10657;51.276;6.390;2022-11-14T00:40:11;6.10;99.90
20998;DHT22;10657;51.276;6.390;2022-11-14T00:42:40;6.00;99.90
20998;DHT22;10657;51.276;6.390;2022-11-14T00:45:07;6.00;99.90
20998;DHT22;10657;51.276;6.390;2022-11-14T00:47:34;6.00;99.90
20998;DHT22;10657;51.276;6.390;2022-11-14T00:50:00;5.90;99.90
20998;DHT22;10657;51.276;6.390;2022-11-14T00:52:27;5.80;99.90
20998;DHT22;10657;51.276;6.390;2022-11-14T00:54:53;5.90;99.90
20998;DHT22;10657;51.276;6.390;2022-11-14T00:57:20;5.80;99.90
20998;DHT22;10657;51.276;6.390;2022-11-14T00:59:47;5.90;99.90
20998;DHT22;10657;51.276;6.390;2022-11-14T01:02:13;6.00;99.90
20998;DHT22;10657;51.276;6.390;2022-11-14T01:04:40;6.00;99.90
20998;DHT22;10657;51.276;6.390;2022-11-14T01:07:06;6.00;99.90
20998;DHT22;10657;51.276;6.390;2022-11-14T01:09:33;6.00;99.90
20998;DHT22;10657;51.276;6.390;2022-11-14T01:11:59;5.90;99.90
20998;DHT22;10657;51.276;6.390;2022-11-14T01:14:26;5.80;99.90
20998;DHT22;10657;51.276;6.390;2022-11-14T01:16:53;5.80;99.90
20998;DHT22;10657;51.276;6.390;2022-11-14T01:19:19;5.90;99.90
20998;DHT22;10657;51.276;6.390;2022-11-14T01:21:46;5.70;99.90
20998;DHT22;10657;51.276;6.390;2022-11-14T01:24:12;5.60;99.90
20998;DHT22;10657;51.276;6.390;2022-11-14T01:26:39;5.60;99.90
20998;DHT22;10657;51.276;6.390;2022-11-14T01:29:05;5.60;99.90
20998;DHT22;10657;51.276;6.390;2022-11-14T01:31:32;5.70;99.90
20998;DHT22;10657;51.276;6.390;2022-11-14T01:33:58;5.70;99.90
20998;DHT22;10657;51.276;6.390;2022-11-14T01:36:25;5.60;99.90
20998;DHT22;10657;51.276;6.390;2022-11-14T01:38:52;5.60;99.90
20998;DHT22;10657;51.276;6.390;2022-11-14T01:41:20;5.70;99.90
20998;DHT22;10657;51.276;6.390;2022-11-14T01:43:47;5.70;99.90
20998;DHT22;10657;51.276;6.390;2022-11-14T01:46:25;5.50;99.90
20998;DHT22;10657;51.276;6.390;2022-11-14T01:49:13;5.50;99.90
20998;DHT22;10657;51.276;6.390;2022-11-14T01:51:50;5.50;99.90
20998;DHT22;10657;51.276;6.390;2022-11-14T01:54:23;5.60;99.90
20998;DHT22;10657;51.276;6.390;2022-11-14T01:56:58;5.60;99.90
20998;DHT22;10657;51.276;6.390;2022-11-14T01:59:34;5.60;99.90
20998;DHT22;10657;51.276;6.390;2022-11-14T02:02:05;5.50;99.90
20998;DHT22;10657;51.276;6.390;2022-11-14T02:04:36;5.60;99.90
20998;DHT22;10657;51.276;6.390;2022-11-14T02:07:05;5.60;99.90
20998;DHT22;10657;51.276;6.390;2022-11-14T02:09:38;5.70;99.90
20998;DHT22;10657;51.276;6.390;2022-11-14T02:12:08;5.60;99.90
20998;DHT22;10657;51.276;6.390;2022-11-14T02:14:36;5.60;99.90
20998;DHT22;10657;51.276;6.390;2022-11-14T02:17:03;5.60;99.90
20998;DHT22;10657;51.276;6.390;2022-11-14T02:19:52;5.50;99.90
20998;DHT22;10657;51.276;6.390;2022-11-14T02:22:19;5.40;99.90
20998;DHT22;10657;51.276;6.390;2022-11-14T02:24:46;5.40;99.90
20998;DHT22;10657;51.276;6.390;2022-11-14T02:27:13;5.50;99.90
20998;DHT22;10657;51.276;6.390;2022-11-14T02:29:40;5.50;99.90
20998;DHT22;10657;51.276;6.390;2022-11-14T02:32:07;5.40;99.90
20998;DHT22;10657;51.276;6.390;2022-11-14T02:34:37;5.40;99.90
20998;DHT22;10657;51.276;6.390;2022-11-14T02:37:04;5.40;99.90
20998;DHT22;10657;51.276;6.390;2022-11-14T02:39:30;5.40;99.90
20998;DHT22;10657;51.276;6.390;2022-11-14T02:41:57;5.30;99.90
20998;DHT22;10657;51.276;6.390;2022-11-14T02:44:24;5.40;99.90
20998;DHT22;10657;51.276;6.390;2022-11-14T02:46:50;5.10;99.90
20998;DHT22;10657;51.276;6.390;2022-11-14T02:49:17;5.20;99.90
20998;DHT22;10657;51.276;6.390;2022-11-14T02:51:43;5.10;99.90
20998;DHT22;10657;51.276;6.390;2022-11-14T02:54:10;5.10;99.90
20998;DHT22;10657;51.276;6.390;2022-11-14T02:56:37;5.00;99.90
20998;DHT22;10657;51.276;6.390;2022-11-14T02:59:03;5.10;99.90
20998;DHT22;10657;51.276;6.390;2022-11-14T03:01:30;5.10;99.90
20998;DHT22;10657;51.276;6.390;2022-11-14T03:03:56;5.10;99.90
20998;DHT22;10657;51.276;6.390;2022-11-14T03:06:23;5.20;99.90
20998;DHT22;10657;51.276;6.390;2022-11-14T03:08:50;5.10;99.90
20998;DHT22;10657;51.276;6.390;2022-11-14T03:11:16;5.20;99.90
20998;DHT22;10657;51.276;6.390;2022-11-14T03:13:43;5.10;99.90
20998;DHT22;10657;51.276;6.390;2022-11-14T03:16:11;5.10;99.90
20998;DHT22;10657;51.276;6.390;2022-11-14T03:18:38;5.00;99.90
20998;DHT22;10657;51.276;6.390;2022-11-14T03:21:10;5.00;99.90
20998;DHT22;10657;51.276;6.390;2022-11-14T03:23:37;4.90;99.90
20998;DHT22;10657;51.276;6.390;2022-11-14T03:26:06;4.90;99.90
20998;DHT22;10657;51.276;6.390;2022-11-14T03:28:33;4.70;99.90
20998;DHT22;10657;51.276;6.390;2022-11-14T03:31:00;4.90;99.90
20998;DHT22;10657;51.276;6.390;2022-11-14T03:33:27;5.00;99.90
20998;DHT22;10657;51.276;6.390;2022-11-14T03:35:54;4.80;99.90
20998;DHT22;10657;51.276;6.390;2022-11-14T03:38:20;4.70;99.90
20998;DHT22;10657;51.276;6.390;2022-11-14T03:40:49;4.60;99.90
20998;DHT22;10657;51.276;6.390;2022-11-14T03:43:17;4.20;99.90
20998;DHT22;10657;51.276;6.390;2022-11-14T03:45:44;4.40;99.90
20998;DHT22;10657;51.276;6.390;2022-11-14T03:48:11;4.40;99.90
20998;DHT22;10657;51.276;6.390;2022-11-14T03:50:38;4.50;99.90
20998;DHT22;10657;51.276;6.390;2022-11-14T03:53:05;4.60;99.90
20998;DHT22;10657;51.276;6.390;2022-11-14T03:55:32;4.60;99.90
20998;DHT22;10657;51.276;6.390;2022-11-14T03:57:59;4.70;99.90
20998;DHT22;10657;51.276;6.390;2022-11-14T04:00:26;4.80;99.90
20998;DHT22;10657;51.276;6.390;2022-11-14T04:02:55;4.80;99.90
20998;DHT22;10657;51.276;6.390;2022-11-14T04:05:22;4.90;99.90
20998;DHT22;10657;51.276;6.390;2022-11-14T04:07:49;4.90;99.90
20998;DHT22;10657;51.276;6.390;2022-11-14T04:10:16;4.90;99.90
20998;DHT22;10657;51.276;6.390;2022-11-14T04:12:51;5.00;99.90
20998;DHT22;10657;51.276;6.390;2022-11-14T04:15:18;4.90;99.90
20998;DHT22;10657;51.276;6.390;2022-11-14T04:17:45;4.90;99.90
20998;DHT22;10657;51.276;6.390;2022-11-14T04:20:13;4.70;99.90
20998;DHT22;10657;51.276;6.390;2022-11-14T04:22:40;4.80;99.90
20998;DHT22;10657;51.276;6.390;2022-11-14T04:25:07;4.60;99.90
20998;DHT22;10657;51.276;6.390;2022-11-14T04:27:34;4.60;99.90
20998;DHT22;10657;51.276;6.390;2022-11-14T04:30:02;4.60;99.90
20998;DHT22;10657;51.276;6.390;2022-11-14T04:32:29;4.60;99.90
20998;DHT22;10657;51.276;6.390;2022-11-14T04:34:55;4.50;99.90
20998;DHT22;10657;51.276;6.390;2022-11-14T04:37:22;4.50;99.90
20998;DHT22;10657;51.276;6.390;2022-11-14T04:39:48;4.50;99.90
20998;DHT22;10657;51.276;6.390;2022-11-14T04:42:15;4.50;99.90
20998;DHT22;10657;51.276;6.390;2022-11-14T04:44:42;4.60;99.90
20998;DHT22;10657;51.276;6.390;2022-11-14T04:47:08;4.60;99.90
20998;DHT22;10657;51.276;6.390;2022-11-14T04:49:35;4.60;99.90
20998;DHT22;10657;51.276;6.390;2022-11-14T04:52:05;4.60;99.90
20998;DHT22;10657;51.276;6.390;2022-11-14T04:54:31;4.60;99.90
20998;DHT22;10657;51.276;6.390;2022-11-14T04:56:58;4.60;99.90
20998;DHT22;10657;51.276;6.390;2022-11-14T04:59:24;4.60;99.90
20998;DHT22;10657;51.276;6.390;2022-11-14T05:01:51;4.60;99.90
20998;DHT22;10657;51.276;6.390;2022-11-14T05:04:18;4.60;99.90
20998;DHT22;10657;51.276;6.390;2022-11-14T05:06:45;4.60;99.90
20998;DHT22;10657;51.276;6.390;2022-11-14T05:09:11;4.70;99.90
20998;DHT22;10657;51.276;6.390;2022-11-14T05:11:38;4.60;99.90
20998;DHT22;10657;51.276;6.390;2022-11-14T05:14:05;4.60;99.90
20998;DHT22;10657;51.276;6.390;2022-11-14T05:16:31;4.60;99.90
20998;DHT22;10657;51.276;6.390;2022-11-14T05:18:58;4.60;99.90
20998;DHT22;10657;51.276;6.390;2022-11-14T05:21:25;4.60;99.90
20998;DHT22;10657;51.276;6.390;2022-11-14T05:23:51;4.60;99.90
20998;DHT22;10657;51.276;6.390;2022-11-14T05:26:18;4.70;99.90
20998;DHT22;10657;51.276;6.390;2022-11-14T05:28:44;4.60;99.90
20998;DHT22;10657;51.276;6.390;2022-11-14T05:31:13;4.50;99.90
20998;DHT22;10657;51.276;6.390;2022-11-14T05:33:44;4.50;99.90
20998;DHT22;10657;51.276;6.390;2022-11-14T05:36:13;4.30;99.90
20998;DHT22;10657;51.276;6.390;2022-11-14T05:38:40;4.30;99.90
20998;DHT22;10657;51.276;6.390;2022-11-14T05:41:12;4.50;99.90
20998;DHT22;10657;51.276;6.390;2022-11-14T05:43:39;4.50;99.90
20998;DHT22;10657;51.276;6.390;2022-11-14T05:46:09;4.60;99.90
20998;DHT22;10657;51.276;6.390;2022-11-14T05:48:37;4.60;99.90
20998;DHT22;10657;51.276;6.390;2022-11-14T05:51:05;4.70;99.90
20998;DHT22;10657;51.276;6.390;2022-11-14T05:53:33;4.70;99.90
20998;DHT22;10657;51.276;6.390;2022-11-14T05:56:01;4.70;99.90
20998;DHT22;10657;51.276;6.390;2022-11-14T05:58:33;4.80;99.90
20998;DHT22;10657;51.276;6.390;2022-11-14T06:01:05;4.80;99.90
20998;DHT22;10657;51.276;6.390;2022-11-14T06:03:33;4.70;99.90
20998;DHT22;10657;51.276;6.390;2022-11-14T06:06:02;4.70;99.90
20998;DHT22;10657;51.276;6.390;2022-11-14T06:08:30;4.80;99.90
20998;DHT22;10657;51.276;6.390;2022-11-14T06:11:02;4.80;99.90
20998;DHT22;10657;51.276;6.390;2022-11-14T06:13:29;4.80;99.90
20998;DHT22;10657;51.276;6.390;2022-11-14T06:16:00;4.90;99.90
20998;DHT22;10657;51.276;6.390;2022-11-14T06:18:28;4.90;99.90
20998;DHT22;10657;51.276;6.390;2022-11-14T06:21:22;4.80;99.90
20998;DHT22;10657;51.276;6.390;2022-11-14T06:23:49;4.90;99.90
20998;DHT22;10657;51.276;6.390;2022-11-14T06:26:27;5.10;99.90
20998;DHT22;10657;51.276;6.390;2022-11-14T06:28:58;5.10;99.90
20998;DHT22;10657;51.276;6.390;2022-11-14T06:31:26;5.30;99.90
20998;DHT22;10657;51.276;6.390;2022-11-14T06:33:53;5.30;99.90
20998;DHT22;10657;51.276;6.390;2022-11-14T06:36:20;5.40;99.90
20998;DHT22;10657;51.276;6.390;2022-11-14T06:38:46;5.50;99.90
20998;DHT22;10657;51.276;6.390;2022-11-14T06:41:14;5.50;99.90
20998;DHT22;10657;51.276;6.390;2022-11-14T06:43:43;5.70;99.90
20998;DHT22;10657;51.276;6.390;2022-11-14T06:46:16;5.80;99.90
20998;DHT22;10657;51.276;6.390;2022-11-14T06:48:44;5.80;99.90
20998;DHT22;10657;51.276;6.390;2022-11-14T06:51:11;5.90;99.90
20998;DHT22;10657;51.276;6.390;2022-11-14T06:53:39;5.90;99.90
20998;DHT22;10657;51.276;6.390;2022-11-14T06:56:10;5.90;99.90
20998;DHT22;10657;51.276;6.390;2022-11-14T06:58:50;5.90;99.90
20998;DHT22;10657;51.276;6.390;2022-11-14T07:01:21;5.80;99.90
20998;DHT22;10657;51.276;6.390;2022-11-14T07:03:49;5.80;99.90
20998;DHT22;10657;51.276;6.390;2022-11-14T07:06:22;5.80;99.90
20998;DHT22;10657;51.276;6.390;2022-11-14T07:08:51;5.70;99.90
20998;DHT22;10657;51.276;6.390;2022-11-14T07:11:23;5.70;99.90
20998;DHT22;10657;51.276;6.390;2022-11-14T07:13:56;5.70;99.90
20998;DHT22;10657;51.276;6.390;2022-11-14T07:16:26;5.70;99.90
20998;DHT22;10657;51.276;6.390;2022-11-14T07:19:10;5.80;99.90
20998;DHT22;10657;51.276;6.390;2022-11-14T07:22:41;5.90;99.90
20998;DHT22;10657;51.276;6.390;2022-11-14T07:28:14;6.00;99.90
20998;DHT22;10657;51.276;6.390;2022-11-14T07:30:41;6.10;99.90
20998;DHT22;10657;51.276;6.390;2022-11-14T07:33:07;6.20;99.90
20998;DHT22;10657;51.276;6.390;2022-11-14T07:35:34;6.30;99.90
20998;DHT22;10657;51.276;6.390;2022-11-14T07:38:02;6.40;99.90
20998;DHT22;10657;51.276;6.390;2022-11-14T07:40:29;6.50;99.90
20998;DHT22;10657;51.276;6.390;2022-11-14T07:42:59;6.60;99.90
20998;DHT22;10657;51.276;6.390;2022-11-14T07:45:27;6.70;99.90
20998;DHT22;10657;51.276;6.390;2022-11-14T07:48:01;6.60;99.90
20998;DHT22;10657;51.276;6.390;2022-11-14T07:50:28;6.70;99.90
20998;DHT22;10657;51.276;6.390;2022-11-14T07:52:56;6.60;99.90
20998;DHT22;10657;51.276;6.390;2022-11-14T07:55:23;6.80;99.90
20998;DHT22;10657;51.276;6.390;2022-11-14T07:57:54;6.80;99.90
20998;DHT22;10657;51.276;6.390;2022-11-14T08:00:21;6.80;99.90
20998;DHT22;10657;51.276;6.390;2022-11-14T08:02:47;6.80;99.90
20998;DHT22;10657;51.276;6.390;2022-11-14T08:05:14;6.80;99.90
20998;DHT22;10657;51.276;6.390;2022-11-14T08:07:41;6.70;99.90
20998;DHT22;10657;51.276;6.390;2022-11-14T08:10:08;6.60;99.90
20998;DHT22;10657;51.276;6.390;2022-11-14T08:12:37;6.70;99.90
20998;DHT22;10657;51.276;6.390;2022-11-14T08:15:10;6.70;99.90
20998;DHT22;10657;51.276;6.390;2022-11-14T08:17:37;6.70;99.90
20998;DHT22;10657;51.276;6.390;2022-11-14T08:20:05;6.80;99.90
20998;DHT22;10657;51.276;6.390;2022-11-14T08:22:32;6.90;99.90
20998;DHT22;10657;51.276;6.390;2022-11-14T08:24:59;7.00;99.90
20998;DHT22;10657;51.276;6.390;2022-11-14T08:27:26;7.20;99.90
20998;DHT22;10657;51.276;6.390;2022-11-14T08:29:52;7.00;99.90
20998;DHT22;10657;51.276;6.390;2022-11-14T08:32:19;7.30;99.90
20998;DHT22;10657;51.276;6.390;2022-11-14T08:34:46;7.20;99.90
20998;DHT22;10657;51.276;6.390;2022-11-14T08:37:13;7.10;99.90
20998;DHT22;10657;51.276;6.390;2022-11-14T08:39:39;7.40;99.90
20998;DHT22;10657;51.276;6.390;2022-11-14T08:42:06;7.10;99.90
20998;DHT22;10657;51.276;6.390;2022-11-14T08:44:33;7.10;99.90
20998;DHT22;10657;51.276;6.390;2022-11-14T08:46:59;7.30;99.90
20998;DHT22;10657;51.276;6.390;2022-11-14T08:49:27;7.30;99.90
20998;DHT22;10657;51.276;6.390;2022-11-14T08:51:54;7.40;99.90
20998;DHT22;10657;51.276;6.390;2022-11-14T08:54:20;7.70;99.90
20998;DHT22;10657;51.276;6.390;2022-11-14T08:56:47;7.70;99.90
20998;DHT22;10657;51.276;6.390;2022-11-14T08:59:13;7.60;99.90
20998;DHT22;10657;51.276;6.390;2022-11-14T09:01:40;7.80;99.90
20998;DHT22;10657;51.276;6.390;2022-11-14T09:04:07;7.70;99.90
20998;DHT22;10657;51.276;6.390;2022-11-14T09:06:34;7.70;99.90
20998;DHT22;10657;51.276;6.390;2022-11-14T09:09:01;7.90;99.90
20998;DHT22;10657;51.276;6.390;2022-11-14T09:11:27;8.30;99.90
20998;DHT22;10657;51.276;6.390;2022-11-14T09:13:54;8.40;99.90
20998;DHT22;10657;51.276;6.390;2022-11-14T09:16:21;8.10;99.90
20998;DHT22;10657;51.276;6.390;2022-11-14T09:18:47;8.10;99.90
20998;DHT22;10657;51.276;6.390;2022-11-14T09:21:14;8.20;99.90
20998;DHT22;10657;51.276;6.390;2022-11-14T09:23:41;8.30;99.90
20998;DHT22;10657;51.276;6.390;2022-11-14T09:26:08;8.40;99.90
20998;DHT22;10657;51.276;6.390;2022-11-14T09:28:36;8.50;99.90
20998;DHT22;10657;51.276;6.390;2022-11-14T09:31:07;8.40;99.90
20998;DHT22;10657;51.276;6.390;2022-11-14T09:33:35;8.30;99.90
20998;DHT22;10657;51.276;6.390;2022-11-14T09:36:05;8.20;99.90
20998;DHT22;10657;51.276;6.390;2022-11-14T09:38:32;8.10;99.90
20998;DHT22;10657;51.276;6.390;2022-11-14T09:41:32;8.00;99.90
20998;DHT22;10657;51.276;6.390;2022-11-14T09:47:02;8.20;99.90
20998;DHT22;10657;51.276;6.390;2022-11-14T09:49:43;8.30;99.90
20998;DHT22;10657;51.276;6.390;2022-11-14T09:57:41;8.40;99.90
20998;DHT22;10657;51.276;6.390;2022-11-14T10:00:13;8.20;99.90
20998;DHT22;10657;51.276;6.390;2022-11-14T10:06:02;8.60;99.90
20998;DHT22;10657;51.276;6.390;2022-11-14T10:08:48;8.50;99.90
20998;DHT22;10657;51.276;6.390;2022-11-14T10:11:32;8.60;99.90
20998;DHT22;10657;51.276;6.390;2022-11-14T10:16:57;8.50;99.90
20998;DHT22;10657;51.276;6.390;2022-11-14T10:19:57;8.60;99.90
20998;DHT22;10657;51.276;6.390;2022-11-14T10:28:44;8.40;99.90
20998;DHT22;10657;51.276;6.390;2022-11-14T10:31:24;8.50;99.90
20998;DHT22;10657;51.276;6.390;2022-11-14T10:34:41;8.50;99.90
20998;DHT22;10657;51.276;6.390;2022-11-14T10:37:29;8.50;99.90
20998;DHT22;10657;51.276;6.390;2022-11-14T10:42:37;8.70;99.90
20998;DHT22;10657;51.276;6.390;2022-11-14T10:53:54;8.60;99.90
20998;DHT22;10657;51.276;6.390;2022-11-14T10:56:21;8.40;99.90
20998;DHT22;10657;51.276;6.390;2022-11-14T10:58:48;8.50;99.90
20998;DHT22;10657;51.276;6.390;2022-11-14T11:01:32;8.50;99.90
20998;DHT22;10657;51.276;6.390;2022-11-14T11:06:57;8.50;99.90
20998;DHT22;10657;51.276;6.390;2022-11-14T11:09:26;8.50;99.90
20998;DHT22;10657;51.276;6.390;2022-11-14T11:12:21;8.60;99.90
20998;DHT22;10657;51.276;6.390;2022-11-14T11:17:32;8.50;99.90
20998;DHT22;10657;51.276;6.390;2022-11-14T11:20:36;8.70;99.90
20998;DHT22;10657;51.276;6.390;2022-11-14T11:23:23;8.70;99.90
20998;DHT22;10657;51.276;6.390;2022-11-14T11:25:59;8.80;99.90
20998;DHT22;10657;51.276;6.390;2022-11-14T11:28:26;8.70;99.90
20998;DHT22;10657;51.276;6.390;2022-11-14T11:30:58;8.70;99.90
20998;DHT22;10657;51.276;6.390;2022-11-14T11:33:34;8.70;99.90
20998;DHT22;10657;51.276;6.390;2022-11-14T11:38:32;8.70;99.90
20998;DHT22;10657;51.276;6.390;2022-11-14T11:41:20;8.90;99.90
20998;DHT22;10657;51.276;6.390;2022-11-14T11:44:11;8.90;99.90
20998;DHT22;10657;51.276;6.390;2022-11-14T11:46:58;8.90;99.90
20998;DHT22;10657;51.276;6.390;2022-11-14T11:49:42;9.00;99.90
20998;DHT22;10657;51.276;6.390;2022-11-14T11:52:34;9.00;99.90
20998;DHT22;10657;51.276;6.390;2022-11-14T11:55:16;9.10;99.90
20998;DHT22;10657;51.276;6.390;2022-11-14T11:57:50;8.90;99.90
20998;DHT22;10657;51.276;6.390;2022-11-14T12:00:22;8.90;99.90
20998;DHT22;10657;51.276;6.390;2022-11-14T12:02:50;9.00;99.90
20998;DHT22;10657;51.276;6.390;2022-11-14T12:07:57;9.10;99.90
20998;DHT22;10657;51.276;6.390;2022-11-14T12:10:28;9.20;99.90
20998;DHT22;10657;51.276;6.390;2022-11-14T12:19:10;9.30;99.90
20998;DHT22;10657;51.276;6.390;2022-11-14T12:21:58;9.30;99.90
20998;DHT22;10657;51.276;6.390;2022-11-14T12:30:19;9.40;99.90
20998;DHT22;10657;51.276;6.390;2022-11-14T12:32:55;9.40;99.90
20998;DHT22;10657;51.276;6.390;2022-11-14T12:35:28;9.30;99.90
20998;DHT22;10657;51.276;6.390;2022-11-14T12:37:59;9.20;99.90
20998;DHT22;10657;51.276;6.390;2022-11-14T12:40:32;9.20;99.90
20998;DHT22;10657;51.276;6.390;2022-11-14T12:43:01;9.10;99.90
20998;DHT22;10657;51.276;6.390;2022-11-14T12:48:36;9.40;99.90
20998;DHT22;10657;51.276;6.390;2022-11-14T12:51:03;9.60;99.90
20998;DHT22;10657;51.276;6.390;2022-11-14T13:07:32;10.10;99.90
20998;DHT22;10657;51.276;6.390;2022-11-14T13:10:27;10.10;99.90
20998;DHT22;10657;51.276;6.390;2022-11-14T13:13:14;10.10;99.90
20998;DHT22;10657;51.276;6.390;2022-11-14T13:16:02;10.00;99.90
20998;DHT22;10657;51.276;6.390;2022-11-14T13:21:37;9.90;99.90
20998;DHT22;10657;51.276;6.390;2022-11-14T13:24:16;9.90;99.90
20998;DHT22;10657;51.276;6.390;2022-11-14T13:26:48;9.80;99.90
20998;DHT22;10657;51.276;6.390;2022-11-14T13:32:10;9.80;99.90
20998;DHT22;10657;51.276;6.390;2022-11-14T13:34:50;9.90;99.90
20998;DHT22;10657;51.276;6.390;2022-11-14T13:40:37;9.80;99.90
20998;DHT22;10657;51.276;6.390;2022-11-14T13:51:20;9.80;99.90
20998;DHT22;10657;51.276;6.390;2022-11-14T13:54:14;9.70;99.90
20998;DHT22;10657;51.276;6.390;2022-11-14T14:16:54;9.50;99.90
20998;DHT22;10657;51.276;6.390;2022-11-14T14:19:39;9.40;99.90
20998;DHT22;10657;51.276;6.390;2022-11-14T14:27:54;9.40;99.90
20998;DHT22;10657;51.276;6.390;2022-11-14T14:30:23;9.40;99.90
20998;DHT22;10657;51.276;6.390;2022-11-14T14:33:07;9.40;99.90
20998;DHT22;10657;51.276;6.390;2022-11-14T14:35:36;9.50;99.90
20998;DHT22;10657;51.276;6.390;2022-11-14T14:38:24;9.50;99.90
20998;DHT22;10657;51.276;6.390;2022-11-14T14:40:53;9.40;99.90
20998;DHT22;10657;51.276;6.390;2022-11-14T14:43:31;9.40;99.90
20998;DHT22;10657;51.276;6.390;2022-11-14T14:45:59;9.20;99.90
20998;DHT22;10657;51.276;6.390;2022-11-14T14:48:29;9.40;99.90
20998;DHT22;10657;51.276;6.390;2022-11-14T14:50:58;9.40;99.90
20998;DHT22;10657;51.276;6.390;2022-11-14T14:53:34;9.40;99.90
20998;DHT22;10657;51.276;6.390;2022-11-14T14:56:04;9.50;99.90
20998;DHT22;10657;51.276;6.390;2022-11-14T14:58:34;9.30;99.90
20998;DHT22;10657;51.276;6.390;2022-11-14T15:01:17;9.40;99.90
20998;DHT22;10657;51.276;6.390;2022-11-14T15:03:49;9.30;99.90
20998;DHT22;10657;51.276;6.390;2022-11-14T15:06:35;9.30;99.90
20998;DHT22;10657;51.276;6.390;2022-11-14T15:17:20;9.20;99.90
20998;DHT22;10657;51.276;6.390;2022-11-14T15:19:45;9.30;99.90
20998;DHT22;10657;51.276;6.390;2022-11-14T15:26:03;9.40;99.90
20998;DHT22;10657;51.276;6.390;2022-11-14T15:32:21;9.30;99.90
20998;DHT22;10657;51.276;6.390;2022-11-14T15:35:32;9.30;99.90
20998;DHT22;10657;51.276;6.390;2022-11-14T15:38:30;9.30;99.90
20998;DHT22;10657;51.276;6.390;2022-11-14T15:42:10;9.30;99.90
20998;DHT22;10657;51.276;6.390;2022-11-14T15:45:21;9.40;99.90
20998;DHT22;10657;51.276;6.390;2022-11-14T15:48:17;9.50;99.90
20998;DHT22;10657;51.276;6.390;2022-11-14T15:50:51;9.40;99.90
20998;DHT22;10657;51.276;6.390;2022-11-14T15:53:31;9.50;99.90
20998;DHT22;10657;51.276;6.390;2022-11-14T15:56:13;9.30;99.90
20998;DHT22;10657;51.276;6.390;2022-11-14T15:58:41;9.20;99.90
20998;DHT22;10657;51.276;6.390;2022-11-14T16:01:21;9.30;99.90
20998;DHT22;10657;51.276;6.390;2022-11-14T16:03:48;9.40;99.90
20998;DHT22;10657;51.276;6.390;2022-11-14T16:06:17;9.40;99.90
20998;DHT22;10657;51.276;6.390;2022-11-14T16:08:43;9.30;99.90
20998;DHT22;10657;51.276;6.390;2022-11-14T16:11:10;9.20;99.90
20998;DHT22;10657;51.276;6.390;2022-11-14T16:13:36;9.30;99.90
20998;DHT22;10657;51.276;6.390;2022-11-14T16:16:03;9.30;99.90
20998;DHT22;10657;51.276;6.390;2022-11-14T16:18:30;9.40;99.90
20998;DHT22;10657;51.276;6.390;2022-11-14T16:20:56;9.40;99.90
20998;DHT22;10657;51.276;6.390;2022-11-14T16:23:24;9.30;99.90
20998;DHT22;10657;51.276;6.390;2022-11-14T16:25:51;9.20;99.90
20998;DHT22;10657;51.276;6.390;2022-11-14T16:28:18;9.20;99.90
20998;DHT22;10657;51.276;6.390;2022-11-14T16:30:44;9.20;99.90
20998;DHT22;10657;51.276;6.390;2022-11-14T16:33:11;9.30;99.90
20998;DHT22;10657;51.276;6.390;2022-11-14T16:35:37;9.30;99.90
20998;DHT22;10657;51.276;6.390;2022-11-14T16:38:04;9.30;99.90
20998;DHT22;10657;51.276;6.390;2022-11-14T16:40:31;9.30;99.90
20998;DHT22;10657;51.276;6.390;2022-11-14T16:42:58;9.30;99.90
20998;DHT22;10657;51.276;6.390;2022-11-14T16:45:26;9.30;99.90
20998;DHT22;10657;51.276;6.390;2022-11-14T16:47:53;9.30;99.90
20998;DHT22;10657;51.276;6.390;2022-11-14T16:50:19;9.40;99.90
20998;DHT22;10657;51.276;6.390;2022-11-14T16:52:46;9.30;99.90
20998;DHT22;10657;51.276;6.390;2022-11-14T16:55:13;9.30;99.90
20998;DHT22;10657;51.276;6.390;2022-11-14T16:57:39;9.30;99.90
20998;DHT22;10657;51.276;6.390;2022-11-14T17:00:09;9.30;99.90
20998;DHT22;10657;51.276;6.390;2022-11-14T17:02:36;9.30;99.90
20998;DHT22;10657;51.276;6.390;2022-11-14T17:05:03;9.30;99.90
20998;DHT22;10657;51.276;6.390;2022-11-14T17:07:30;9.30;99.90
20998;DHT22;10657;51.276;6.390;2022-11-14T17:09:59;9.30;99.90
20998;DHT22;10657;51.276;6.390;2022-11-14T17:12:26;9.30;99.90
20998;DHT22;10657;51.276;6.390;2022-11-14T17:14:53;9.30;99.90
20998;DHT22;10657;51.276;6.390;2022-11-14T17:17:20;9.30;99.90
20998;DHT22;10657;51.276;6.390;2022-11-14T17:19:47;9.30;99.90
20998;DHT22;10657;51.276;6.390;2022-11-14T17:22:15;9.20;99.90
20998;DHT22;10657;51.276;6.390;2022-11-14T17:24:43;9.20;99.90
20998;DHT22;10657;51.276;6.390;2022-11-14T17:27:10;9.20;99.90
20998;DHT22;10657;51.276;6.390;2022-11-14T17:29:38;9.20;99.90
20998;DHT22;10657;51.276;6.390;2022-11-14T17:32:05;9.20;99.90
20998;DHT22;10657;51.276;6.390;2022-11-14T17:34:32;9.20;99.90
20998;DHT22;10657;51.276;6.390;2022-11-14T17:36:58;9.10;99.90
20998;DHT22;10657;51.276;6.390;2022-11-14T17:39:25;9.20;99.90
20998;DHT22;10657;51.276;6.390;2022-11-14T17:41:51;9.20;99.90
20998;DHT22;10657;51.276;6.390;2022-11-14T17:44:18;9.30;99.90
20998;DHT22;10657;51.276;6.390;2022-11-14T17:46:45;9.20;99.90
20998;DHT22;10657;51.276;6.390;2022-11-14T17:49:12;9.20;99.90
20998;DHT22;10657;51.276;6.390;2022-11-14T17:51:39;9.30;99.90
20998;DHT22;10657;51.276;6.390;2022-11-14T17:54:05;9.20;99.90
20998;DHT22;10657;51.276;6.390;2022-11-14T17:56:32;9.30;99.90
20998;DHT22;10657;51.276;6.390;2022-11-14T17:58:59;9.30;99.90
20998;DHT22;10657;51.276;6.390;2022-11-14T18:05:22;9.20;99.90
20998;DHT22;10657;51.276;6.390;2022-11-14T18:08:09;9.30;99.90
20998;DHT22;10657;51.276;6.390;2022-11-14T18:11:15;9.20;99.90
20998;DHT22;10657;51.276;6.390;2022-11-14T18:13:45;9.20;99.90
20998;DHT22;10657;51.276;6.390;2022-11-14T18:16:17;9.20;99.90
20998;DHT22;10657;51.276;6.390;2022-11-14T18:18:44;9.20;99.90
20998;DHT22;10657;51.276;6.390;2022-11-14T18:21:15;9.10;99.90
20998;DHT22;10657;51.276;6.390;2022-11-14T18:23:42;9.10;99.90
20998;DHT22;10657;51.276;6.390;2022-11-14T18:26:14;9.10;99.90